createdAt,value
2022-12-09T00:01:19.941Z,13.597126025077978
2022-12-09T00:04:17.619Z,13.692186557647892
2022-12-09T00:07:17.092Z,13.744212972378591
2022-12-09T00:11:17.014Z,13.788531793645324
2022-12-09T00:14:16.169Z,13.875242593525035
2022-12-09T00:17:16.259Z,13.948465111299083
2022-12-09T00:21:20.466Z,13.993426335709227
2022-12-09T00:24:16.172Z,14.004345493571691
2022-12-09T00:27:16.117Z,14.033891456729998
2022-12-09T00:31:19.419Z,14.113537144478414
2022-12-09T00:34:17.043Z,14.177767588755614
2022-12-09T00:37:17.105Z,14.202175169504425
2022-12-09T00:41:17.561Z,14.150790796620367
2022-12-09T00:44:16.778Z,14.146936969827312
2022-12-09T00:47:16.884Z,14.204102084053739
2022-12-09T00:51:17.630Z,14.249063435156495
2022-12-09T00:54:16.556Z,14.29209789208262
2022-12-09T00:57:16.601Z,14.28246331040027
2022-12-09T01:01:16.337Z,14.344766956698095
2022-12-09T01:04:17.540Z,14.362109216372847
2022-12-09T01:07:16.507Z,14.355043850919992
2022-12-09T01:11:19.895Z,14.407070645783097
2022-12-09T01:14:16.854Z,14.446251338152887
2022-12-09T01:17:16.531Z,14.545166604009228
2022-12-09T01:21:16.257Z,14.598478123190944
2022-12-09T01:24:16.517Z,14.635089666556542
2022-12-09T01:27:16.704Z,14.666562759505178
2022-12-09T01:31:19.637Z,14.65243198172866
2022-12-09T01:34:17.430Z,14.624170432778556
2022-12-09T01:37:16.802Z,14.671058916532001
2022-12-09T01:41:17.556Z,14.683262772442323
2022-12-09T01:44:20.176Z,14.606185815303252
2022-12-09T01:47:21.377Z,14.610681969337838
2022-12-09T01:51:18.951Z,14.62352812495019
2022-12-09T01:54:16.508Z,14.605543507602215
2022-12-09T01:57:17.084Z,14.61453581583055
2022-12-09T02:01:17.616Z,14.61967427807549
2022-12-09T02:04:17.173Z,14.647935825624973
2022-12-09T02:07:18.789Z,14.640870437912236
2022-12-09T02:11:24.924Z,14.63637428238153
2022-12-09T02:14:21.185Z,14.62481274061147
2022-12-09T02:17:28.139Z,14.574070435822069
2022-12-09T02:21:20.830Z,14.608112738433647
2022-12-09T02:24:24.118Z,14.643439669744112
2022-12-09T02:27:23.429Z,14.626097356290938
2022-12-09T02:31:27.450Z,14.608755046152874
2022-12-09T02:34:18.440Z,14.590128124141575
2022-12-09T02:37:21.402Z,14.569574283601924
2022-12-09T02:41:18.469Z,14.626097356290938
2022-12-09T02:44:20.583Z,14.598478123190944
2022-12-09T02:47:19.682Z,14.599762738497521
2022-12-09T02:51:18.829Z,14.628666587704448
2022-12-09T02:54:18.085Z,14.608755046152874
2022-12-09T02:57:22.446Z,14.59590889263236
2022-12-09T03:01:21.989Z,14.63830120615312
2022-12-09T03:04:20.682Z,14.633162742853164
2022-12-09T03:07:24.677Z,14.646008901648747
2022-12-09T03:11:18.239Z,14.664635835133321
2022-12-09T03:14:22.094Z,14.621601201492377
2022-12-09T03:17:20.453Z,14.602331969165244
2022-12-09T03:21:20.419Z,14.674270457401871
2022-12-09T03:24:21.833Z,14.62288581712637
2022-12-09T03:27:24.791Z,14.655643521939146
2022-12-09T03:31:21.422Z,14.703816638738862
2022-12-09T03:34:20.634Z,14.721801275568215
2022-12-09T03:37:19.397Z,14.717947424518934
2022-12-09T03:41:24.875Z,14.74107053327025
2022-12-09T03:44:21.435Z,14.769974427497164
2022-12-09T03:47:17.226Z,14.778324443099336
2022-12-09T03:51:24.413Z,14.778966752023644
2022-12-09T03:54:21.476Z,14.766120574401521
2022-12-09T03:57:19.933Z,14.79630909469888
2022-12-09T04:01:17.403Z,14.816220677414185
2022-12-09T04:04:16.946Z,14.807228349195157
2022-12-09T04:07:17.576Z,14.814936059042612
2022-12-09T04:11:16.525Z,14.8431976674191
2022-12-09T04:14:16.591Z,14.845766904980792
2022-12-09T04:17:16.723Z,14.870174665445756
2022-12-09T04:21:16.113Z,14.870816975020352
2022-12-09T04:24:16.574Z,14.923486375612265
2022-12-09T04:27:16.469Z,14.93569026547857
2022-12-09T04:31:18.351Z,14.949821087374676
2022-12-09T04:34:17.007Z,14.98386353098067
2022-12-09T04:37:17.341Z,14.975513496461009
2022-12-09T04:41:16.421Z,15.035890686453877
2022-12-09T04:44:16.890Z,15.017905987360518
2022-12-09T04:47:16.995Z,14.985148151744216
2022-12-09T04:51:16.350Z,15.039744551009154
2022-12-09T04:54:16.253Z,15.030752200634833
2022-12-09T04:57:16.528Z,15.057086943533795
2022-12-09T05:01:21.612Z,15.05901387624117
2022-12-09T05:04:17.352Z,15.087917871763057
2022-12-09T05:07:17.169Z,15.134164283752034
2022-12-09T05:11:18.020Z,15.118106499139776
2022-12-09T05:14:17.513Z,15.113610319957662
2022-12-09T05:21:19.344Z,15.163068303216368
2022-12-09T05:24:17.228Z,15.160499056668868
2022-12-09T05:27:16.916Z,15.174629913580521
2022-12-09T05:31:20.383Z,15.157287498586811
2022-12-09T05:34:16.728Z,15.194541579328142
2022-12-09T05:37:16.664Z,15.202249322081116
2022-12-09T05:41:17.248Z,15.209957065488926
2022-12-09T05:44:17.217Z,15.236291860406435
2022-12-09T05:47:17.123Z,15.240788045668523
2022-12-09T05:51:21.895Z,15.232437987502
2022-12-09T05:54:16.737Z,15.270976723913282
2022-12-09T05:57:17.073Z,15.242072670070048
2022-12-09T06:01:17.355Z,15.24271498227763
2022-12-09T06:04:17.157Z,15.244641918927664
2022-12-09T06:07:17.196Z,15.25042272912333
2022-12-09T06:11:18.067Z,15.313369352874087
2022-12-09T06:14:16.251Z,15.335850300512174
2022-12-09T06:17:16.478Z,15.31979248020225
2022-12-09T06:21:17.752Z,15.306303913338343
2022-12-09T06:24:16.635Z,15.311442414764315
2022-12-09T06:27:16.218Z,15.308230851338976
2022-12-09T06:31:16.549Z,15.330069484873183
2022-12-09T06:34:16.572Z,15.35447737563236
2022-12-09T06:37:16.591Z,15.404577803552911
2022-12-09T06:41:16.395Z,15.445043553994037
2022-12-09T06:44:23.239Z,15.479728497309043
2022-12-09T06:47:16.877Z,15.466882220461049
2022-12-09T06:51:17.872Z,15.521478909627422
2022-12-09T06:54:17.353Z,15.546529166240726
2022-12-09T06:57:17.210Z,15.549740738101628
2022-12-09T07:01:20.025Z,15.591491182638856
2022-12-09T07:04:17.809Z,15.572221744311173
2022-12-09T07:07:17.598Z,15.595987385504213
2022-12-09T07:11:16.951Z,15.613329884357881
2022-12-09T07:14:19.493Z,15.603695162363238
2022-12-09T07:17:18.689Z,15.615899143729257
2022-12-09T07:21:18.880Z,15.646730261861013
2022-12-09T07:24:17.330Z,15.712888738215497
2022-12-09T07:27:19.732Z,15.735369784852082
2022-12-09T07:31:19.389Z,15.804097590545371
2022-12-09T07:34:17.636Z,15.799601377366344
2022-12-09T07:37:17.072Z,15.867044598448501
2022-12-09T07:41:18.565Z,15.926780064704143
2022-12-09T07:44:17.400Z,15.94861884713173
2022-12-09T07:47:17.206Z,15.983303982968573
2022-12-09T07:51:16.956Z,16.065520654217472
2022-12-09T07:54:18.330Z,16.091213379262264
2022-12-09T07:57:16.551Z,16.113052201271056
2022-12-09T08:01:21.062Z,16.18370724966844
2022-12-09T08:04:17.084Z,16.247939159596353
2022-12-09T08:07:16.617Z,16.29354384325061
2022-12-09T08:11:18.983Z,16.308317196392455
2022-12-09T08:14:17.505Z,16.38089935764083
2022-12-09T08:17:17.828Z,16.43742355883087
2022-12-09T08:21:19.712Z,16.474678165232852
2022-12-09T08:24:17.255Z,16.52542153304421
2022-12-09T08:27:16.993Z,16.54276420956312
2022-12-09T08:31:19.768Z,16.619842811978106
2022-12-09T08:34:17.083Z,16.66352071574738
2022-12-09T08:37:17.088Z,16.69563683487513
2022-12-09T08:41:19.468Z,16.728395288097452
2022-12-09T08:44:18.738Z,16.75537284669117
2022-12-09T08:47:17.114Z,16.804831724947235
2022-12-09T08:51:17.855Z,16.85814457196393
2022-12-09T08:54:17.383Z,16.897968646802838
2022-12-09T08:57:21.094Z,16.957062467487777
2022-12-09T09:01:18.812Z,16.95963176491241
2022-12-09T09:04:19.598Z,17.013587027637186
2022-12-09T09:07:17.523Z,17.023221899357395
2022-12-09T09:11:19.702Z,17.061761396470047
2022-12-09T09:14:17.530Z,17.06689999732198
2022-12-09T09:17:17.333Z,17.129847881377735
2022-12-09T09:21:19.624Z,17.114432068999395
2022-12-09T09:24:19.068Z,17.179306963774433
2022-12-09T09:27:17.133Z,17.19343813512569
2022-12-09T09:31:19.428Z,17.246751210493766
2022-12-09T09:34:18.021Z,17.268590310653327
2022-12-09T09:37:17.648Z,17.302633624327427
2022-12-09T09:41:24.785Z,17.31355318047581
2022-12-09T09:44:23.271Z,17.357873745393952
2022-12-09T09:47:25.071Z,17.337319277812277
2022-12-09T09:51:20.563Z,17.393844074866866
2022-12-09T09:54:18.128Z,17.425318124854037
2022-12-09T09:57:23.438Z,17.438164679006967
2022-12-09T10:01:18.861Z,17.477989008440726
2022-12-09T10:04:28.751Z,17.537083206911575
2022-12-09T10:07:22.867Z,17.553783748237855
2022-12-09T10:11:23.313Z,17.574338264859488
2022-12-09T10:14:24.354Z,17.638571159315415
2022-12-09T10:17:26.090Z,17.654629390034824
2022-12-09T10:21:20.130Z,17.715650692689177
2022-12-09T10:24:22.288Z,17.743270874751396
2022-12-09T10:27:27.955Z,17.741343885032347
2022-12-09T10:31:16.763Z,17.752905823960553
2022-12-09T10:34:16.993Z,17.774102715822302
2022-12-09T10:37:26.752Z,17.774745045956024
2022-12-09T10:41:37.550Z,17.78116834754337
2022-12-09T10:44:19.683Z,17.753548153944212
2022-12-09T10:47:24.690Z,17.735562916120763
2022-12-09T10:51:20.027Z,17.790160970529634
2022-12-09T10:54:27.055Z,17.765752424497713
2022-12-09T10:57:26.723Z,17.772175725448413
2022-12-09T11:01:17.475Z,17.87173694833509
2022-12-09T11:04:22.788Z,17.898714846897928
2022-12-09T11:07:19.919Z,17.957166987969778
2022-12-09T11:11:17.325Z,18.03745845193189
2022-12-09T11:14:28.659Z,18.099764676929134
2022-12-09T11:17:18.816Z,18.09783767963854
2022-12-09T11:21:34.302Z,18.094626017578502
2022-12-09T11:24:23.106Z,18.140873962211572
2022-12-09T11:27:27.386Z,18.136377633226584
2022-12-09T11:31:33.093Z,18.22951592198451
2022-12-09T11:34:22.337Z,18.267413597880296
2022-12-09T11:37:16.398Z,18.330362314860395
2022-12-09T11:42:18.128Z,18.33550098756241
2022-12-09T11:44:25.274Z,18.34706300220605
2022-12-09T11:47:24.875Z,18.35412867854693
2022-12-09T11:51:21.413Z,18.38881473401934
2022-12-09T11:54:21.638Z,18.41643512100891
2022-12-09T11:57:33.324Z,18.447909525735394
2022-12-09T12:01:22.790Z,18.461398559674855
2022-12-09T12:04:22.006Z,18.46268322967844
2022-12-09T12:07:21.228Z,18.43827450272074
2022-12-09T12:11:18.600Z,18.498011661905274
2022-12-09T12:14:23.548Z,18.4145081169926
2022-12-09T12:17:21.238Z,18.444055516406753
2022-12-09T12:21:31.077Z,18.39716508268757
2022-12-09T12:24:45.429Z,18.362479024022832
2022-12-09T12:27:28.949Z,18.36055202115249
2022-12-09T12:31:28.368Z,18.341281994700058
2022-12-09T12:34:25.743Z,18.28026027126798
2022-12-09T12:37:34.851Z,18.2905376112878
2022-12-09T12:41:26.781Z,18.225019588606663
2022-12-09T13:01:26.164Z,18.10426100409968
2022-12-09T13:04:22.326Z,18.084991032080506
2022-12-09T13:07:26.995Z,18.072786718585213
2022-12-09T13:11:21.499Z,18.056086081725606
2022-12-09T13:14:22.332Z,18.0772830444188
2022-12-09T13:17:18.800Z,18.022684817228672
2022-12-09T13:21:17.908Z,18.044524104162065
2022-12-09T13:24:29.900Z,18.007268853146616
2022-12-09T13:27:23.589Z,17.98286024870695
2022-12-09T13:31:25.062Z,17.94817434843071
2022-12-09T13:34:27.975Z,17.923123428700272
2022-12-09T13:37:53.598Z,17.907707481534818
2022-12-09T13:41:48.750Z,17.930189072026497
2022-12-09T13:44:18.595Z,17.835124098830512
2022-12-09T13:47:35.541Z,17.846043719066436
2022-12-09T13:51:17.950Z,17.8441167271646
2022-12-09T13:54:18.733Z,17.740059225242383
2022-12-09T13:57:24.574Z,17.756117473924313
2022-12-09T14:01:23.718Z,17.709869725414684
2022-12-09T14:04:23.357Z,17.68353421249203
2022-12-09T14:07:31.656Z,17.573695936144578
2022-12-09T14:11:50.879Z,17.510105415878296
2022-12-09T14:14:51.020Z,17.49340488259195
2022-12-09T14:17:56.060Z,17.456149857876973
2022-12-09T14:21:32.850Z,17.471565728317454
2022-12-09T14:24:34.307Z,17.416967865630067
2022-12-09T14:27:19.135Z,17.355304436691586
2022-12-09T14:32:16.865Z,17.345027202609707
2022-12-09T14:34:31.707Z,17.292998722934954
2022-12-09T14:37:32.065Z,17.30841456565404
2022-12-09T14:41:22.795Z,17.347596511021038
2022-12-09T14:44:25.818Z,17.28850243596862
2022-12-09T14:47:21.890Z,17.20628465644586
2022-12-09T14:51:19.076Z,17.271159616900057
2022-12-09T14:54:21.539Z,17.240970273096174
2022-12-09T14:57:21.506Z,17.27180194347311
2022-12-09T15:01:18.537Z,17.267305657557245
2022-12-09T15:04:29.080Z,17.253816801146606
2022-12-09T15:07:19.072Z,17.262809371864204
2022-12-09T15:11:19.863Z,17.25702843344343
2022-12-09T15:14:32.261Z,17.161964165578773
2022-12-09T15:17:29.320Z,17.170314401333236
2022-12-09T15:21:26.811Z,17.140767416730522
2022-12-09T15:24:19.131Z,17.099016259240397
2022-12-09T15:27:18.780Z,17.106724163792478
2022-12-09T15:31:22.024Z,17.107366489201375
2022-12-09T15:34:24.786Z,17.0142293523867
2022-12-09T15:37:18.960Z,17.050199545617307
2022-12-09T15:42:25.508Z,17.03863769623795
2022-12-09T15:44:20.963Z,17.00909075451791
2022-12-09T15:47:23.242Z,17.009733079235595
2022-12-09T15:51:20.966Z,17.026433523491505
2022-12-09T15:54:21.950Z,17.03157212234255
2022-12-09T15:57:19.418Z,16.987894041385516
2022-12-09T16:01:20.373Z,17.043133970821508
2022-12-09T16:04:20.557Z,17.027075848331968
2022-12-09T16:07:19.074Z,17.067542322448936
2022-12-09T16:11:34.526Z,17.077177199898962
2022-12-09T16:14:18.585Z,17.08488510259567
2022-12-09T16:17:20.912Z,17.088739054189592
2022-12-09T16:21:24.926Z,17.102870211434585
2022-12-09T16:24:17.319Z,17.048914895613507
2022-12-09T16:27:21.971Z,17.072680923628287
2022-12-09T16:31:17.764Z,17.051484195639297
2022-12-09T16:34:20.549Z,17.04955722061313
2022-12-09T16:37:26.745Z,17.06561534708171
2022-12-09T16:41:16.832Z,17.091950680642913
2022-12-09T16:44:19.187Z,17.050841870626027
2022-12-09T16:47:19.276Z,17.005236806307312
2022-12-09T16:51:24.067Z,17.04506094571125
2022-12-09T16:54:20.498Z,17.08938137947116
2022-12-09T16:57:19.205Z,17.094519981887423
2022-12-09T17:01:18.013Z,17.112505092636276
2022-12-09T17:04:21.153Z,17.07910417551175
2022-12-09T17:07:16.633Z,17.088739054189592
2022-12-09T17:11:17.463Z,17.09066603004794
2022-12-09T17:14:16.945Z,17.085527427849957
2022-12-09T17:17:16.708Z,17.068826972716487
2022-12-09T17:21:16.653Z,17.100943235317025
2022-12-09T17:24:16.470Z,17.102870211434585
2022-12-09T17:27:16.808Z,17.132417183695452
2022-12-09T17:31:18.934Z,17.16646044627414
2022-12-09T17:34:21.539Z,17.148475324829633
2022-12-09T17:37:17.020Z,17.15232927912475
2022-12-09T17:41:19.055Z,17.20564233033665
2022-12-09T17:44:16.996Z,17.199219069494667
2022-12-09T17:47:16.490Z,17.208853960928174
2022-12-09T17:51:18.114Z,17.285933129230763
2022-12-09T17:54:17.098Z,17.23197770454317
2022-12-09T17:57:17.041Z,17.241612599455493
2022-12-09T18:01:18.707Z,17.278867536076813
2022-12-09T18:04:16.488Z,17.282721495910756
2022-12-09T18:07:16.541Z,17.30006431718939
2022-12-09T18:11:16.427Z,17.314195507348995
2022-12-09T18:14:17.631Z,17.31869179558862
2022-12-09T18:17:16.905Z,17.377143562980926
2022-12-09T18:21:16.739Z,17.3983403670537
2022-12-09T18:24:16.785Z,17.393201747429792
2022-12-09T18:27:16.876Z,17.40990226227159
2022-12-09T18:31:17.418Z,17.412471572520097
2022-12-09T18:34:17.016Z,17.3983403670537
2022-12-09T18:37:19.004Z,17.348238838135238
2022-12-09T18:41:18.381Z,17.35723141821154
2022-12-09T18:44:16.555Z,17.320618776330956
2022-12-09T18:47:16.507Z,17.29942199041625
2022-12-09T18:51:19.487Z,17.28850243596862
2022-12-09T18:54:18.844Z,17.278867536076813
2022-12-09T18:57:17.124Z,17.247393536894016
2022-12-09T19:01:18.312Z,17.25702843344343
2022-12-09T19:04:18.234Z,17.253816801146606
2022-12-09T19:07:17.137Z,17.22426978935
2022-12-09T19:11:16.348Z,17.275655903006918
2022-12-09T19:14:19.077Z,17.267305657557245
2022-12-09T19:17:16.573Z,17.26537867794723
2022-12-09T19:21:18.500Z,17.325757391843943
2022-12-09T19:24:18.704Z,17.314195507348995
2022-12-09T19:27:16.459Z,17.315480161109008
2022-12-09T19:31:19.341Z,17.375216581038057
2022-12-09T19:34:19.460Z,17.41118691738675
2022-12-09T19:37:16.973Z,17.46771176046177
2022-12-09T19:41:16.584Z,17.48376996094048
2022-12-09T19:44:37.161Z,17.524236638752427
2022-12-09T19:47:16.411Z,17.527448280621684
2022-12-09T19:51:20.420Z,17.5698419639506
2022-12-09T19:54:17.158Z,17.604527719589896
2022-12-09T19:57:16.899Z,17.635359513512594
2022-12-09T20:01:19.288Z,17.66490665918682
2022-12-09T20:04:47.406Z,17.6584833658304
2022-12-09T20:07:17.467Z,17.684176541984563
2022-12-09T20:11:19.163Z,17.727212628343203
2022-12-09T20:14:16.945Z,17.730424277397468
2022-12-09T20:17:17.635Z,17.734278256412654
2022-12-09T20:21:18.705Z,17.78245300791541
2022-12-09T20:24:17.058Z,17.768321744823425
2022-12-09T20:27:16.786Z,17.788876310048455
2022-12-09T20:31:19.147Z,17.790160970529634
2022-12-09T20:34:17.962Z,17.815211853548316
2022-12-09T20:37:17.136Z,17.816496514402388
2022-12-09T20:41:16.657Z,17.801722915678784
2022-12-09T20:44:17.247Z,17.806861558440232
2022-12-09T20:47:16.842Z,17.837051090541355
2022-12-09T21:01:18.661Z,17.856963340616584
2022-12-09T21:04:16.771Z,17.85953266352526
2022-12-09T21:07:17.148Z,17.901284170988948
2022-12-09T21:11:18.583Z,17.937254715902963
2022-12-09T21:14:19.194Z,17.92376575988901
2022-12-09T21:17:16.691Z,17.9488166797968
2022-12-09T21:21:18.285Z,17.959736313716075
2022-12-09T21:24:18.265Z,18.005341857820532
2022-12-09T21:27:16.552Z,17.987998901727497
2022-12-09T21:31:18.260Z,18.031677464152835
2022-12-09T21:34:17.953Z,18.052232089040718
2022-12-09T21:37:17.005Z,18.045166436210273
2022-12-09T21:41:18.338Z,18.057370745990283
2022-12-09T21:44:18.538Z,18.0419547760147
2022-12-09T21:47:16.198Z,18.012407507549597
2022-12-09T21:51:16.751Z,18.0419547760147
2022-12-09T21:54:17.125Z,18.03874311593281
2022-12-09T21:57:16.682Z,18.02075782157517
2022-12-09T22:01:18.464Z,18.053516753250825
2022-12-09T22:04:17.421Z,18.03745845193189
2022-12-09T22:07:16.368Z,18.02975046830834
2022-12-09T22:11:18.165Z,18.017546162243615
2022-12-09T22:14:16.480Z,18.010480512114373
2022-12-09T22:17:16.738Z,17.980933253899273
2022-12-09T22:21:25.698Z,18.006626521366705
2022-12-09T22:24:17.157Z,17.99249522335922
2022-12-09T22:27:16.652Z,17.98542957518084
2022-12-09T22:31:18.632Z,18.011122843921566
2022-12-09T22:34:18.896Z,17.977721595977435
2022-12-09T22:37:42.315Z,18.000203203817726
2022-12-09T22:41:18.575Z,18.009838180311725
2022-12-09T22:44:18.710Z,18.004699526054264
2022-12-09T22:47:16.463Z,17.986714238445074
2022-12-09T22:51:18.306Z,17.97836392755271
2022-12-09T22:54:16.313Z,17.934043059527266
2022-12-09T22:57:16.486Z,17.923123428700272
2022-12-09T23:01:20.319Z,17.92890440956262
2022-12-09T23:04:18.868Z,17.897430184879703
2022-12-09T23:07:17.198Z,17.907065150459765
2022-12-09T23:11:19.643Z,17.91284613029893
2022-12-09T23:14:17.311Z,17.918627110506442
2022-12-09T23:17:17.412Z,17.91670011706301
2022-12-09T23:21:20.317Z,17.935327722063903
2022-12-09T23:24:24.015Z,17.97515226972182
2022-12-09T23:27:17.045Z,17.98221791709984
2022-12-09T23:31:18.881Z,18.004699526054264
2022-12-09T23:34:17.483Z,18.03360446003826
2022-12-09T23:37:16.943Z,17.993779886723495
2022-12-09T23:41:18.967Z,18.036173787949156
2022-12-09T23:44:17.671Z,18.012407507549597
2022-12-09T23:47:16.344Z,18.013692171195817
2022-12-09T23:51:18.641Z,18.034246792009164
2022-12-09T23:54:17.835Z,18.046451100320336
2022-12-09T23:57:17.170Z,18.025896476742126
